Time;durP1;ratioP1;P1;durP2;ratioP2;P2;SDS_P1;SDS_P2;PMS_P1;PMS_P2;Temp;Humidity;BMP_temperature;BMP_pressure;BME280_temperature;BME280_humidity;BME280_pressure;Samples;Min_cycle;Max_cycle;Signal;HPM_P1;HPM_P2
2022/10/20 00:00:01;;;;;;;;;;;4.50;99.90;;;;;;4968017;28;19948;-75
2022/10/20 00:02:26;;;;;;;;;;;4.50;99.90;;;;;;4966974;28;20388;-75
2022/10/20 00:04:51;;;;;;;;;;;4.50;99.90;;;;;;4968320;28;20616;-76
2022/10/20 00:07:17;;;;;;;;;;;4.40;99.90;;;;;;4968828;28;19961;-75
2022/10/20 00:09:42;;;;;;;;;;;4.50;99.90;;;;;;4966721;28;19914;-75
2022/10/20 00:12:08;;;;;;;;;;;4.40;99.90;;;;;;4965502;28;19910;-75
2022/10/20 00:14:33;;;;;;;;;;;4.40;99.90;;;;;;4957025;28;19933;-75
2022/10/20 00:17:00;;;;;;;;;;;4.40;99.90;;;;;;4962459;28;20376;-75
2022/10/20 00:19:26;;;;;;;;;;;4.30;99.90;;;;;;4965291;28;19918;-75
2022/10/20 00:21:52;;;;;;;;;;;4.40;99.90;;;;;;4969376;28;19906;-75
2022/10/20 00:24:19;;;;;;;;;;;4.40;99.90;;;;;;4958619;28;20022;-76
2022/10/20 00:26:45;;;;;;;;;;;4.40;99.90;;;;;;4965564;28;20495;-75
2022/10/20 00:29:10;;;;;;;;;;;4.40;99.90;;;;;;4966300;28;20004;-75
2022/10/20 00:31:35;;;;;;;;;;;4.40;99.90;;;;;;4965983;28;19926;-76
2022/10/20 00:34:01;;;;;;;;;;;4.40;99.90;;;;;;4960670;28;19976;-75
2022/10/20 00:36:26;;;;;;;;;;;4.30;99.90;;;;;;4964718;28;19914;-75
2022/10/20 00:38:55;;;;;;;;;;;4.30;99.90;;;;;;4966043;28;19917;-75
2022/10/20 00:41:21;;;;;;;;;;;4.20;99.90;;;;;;4963420;28;20301;-75
2022/10/20 00:43:48;;;;;;;;;;;4.20;99.90;;;;;;4965229;28;19914;-75
2022/10/20 00:46:19;;;;;;;;;;;4.20;99.90;;;;;;4964503;28;19910;-75
2022/10/20 00:48:46;;;;;;;;;;;4.20;99.90;;;;;;4964220;28;19965;-76
2022/10/20 00:51:13;;;;;;;;;;;4.20;99.90;;;;;;4967131;28;19917;-75
2022/10/20 00:53:39;;;;;;;;;;;4.20;99.90;;;;;;4965982;28;19996;-75
2022/10/20 00:56:04;;;;;;;;;;;4.20;99.90;;;;;;4963047;28;20065;-75
2022/10/20 00:58:30;;;;;;;;;;;4.10;99.90;;;;;;4966986;28;19914;-76
2022/10/20 01:00:56;;;;;;;;;;;4.00;99.90;;;;;;4964753;28;19918;-76
2022/10/20 01:03:29;;;;;;;;;;;4.00;99.90;;;;;;4960272;28;19921;-75
2022/10/20 01:05:54;;;;;;;;;;;4.00;99.90;;;;;;4963412;28;19916;-76
2022/10/20 01:08:20;;;;;;;;;;;4.00;99.90;;;;;;4964128;28;19914;-76
2022/10/20 01:11:04;;;;;;;;;;;3.90;99.90;;;;;;4966585;28;19929;-76
2022/10/20 01:13:42;;;;;;;;;;;3.90;99.90;;;;;;4967525;28;19921;-76
2022/10/20 01:16:27;;;;;;;;;;;3.70;99.90;;;;;;4967151;28;19910;-75
2022/10/20 01:19:10;;;;;;;;;;;3.80;99.90;;;;;;4961853;28;19917;-75
2022/10/20 01:21:54;;;;;;;;;;;3.90;99.90;;;;;;4959475;28;19921;-75
2022/10/20 01:24:31;;;;;;;;;;;3.90;99.90;;;;;;4964029;28;19921;-76
2022/10/20 01:27:12;;;;;;;;;;;3.80;99.90;;;;;;4959465;28;19914;-75
2022/10/20 01:29:42;;;;;;;;;;;3.80;99.90;;;;;;4962926;28;19914;-75
2022/10/20 01:32:11;;;;;;;;;;;3.70;99.90;;;;;;4965318;28;19911;-75
2022/10/20 01:34:49;;;;;;;;;;;3.70;99.90;;;;;;4962228;28;20383;-75
2022/10/20 01:37:23;;;;;;;;;;;3.70;99.90;;;;;;4963808;28;19914;-75
2022/10/20 01:39:54;;;;;;;;;;;3.70;99.90;;;;;;4963149;28;19910;-75
2022/10/20 01:42:23;;;;;;;;;;;3.80;99.90;;;;;;4964983;28;19910;-75
2022/10/20 01:44:50;;;;;;;;;;;3.80;99.90;;;;;;4965326;28;19914;-75
2022/10/20 01:47:19;;;;;;;;;;;3.80;99.90;;;;;;4961118;28;19914;-76
2022/10/20 01:49:46;;;;;;;;;;;3.70;99.90;;;;;;4962532;28;20009;-75
2022/10/20 01:52:12;;;;;;;;;;;3.70;99.90;;;;;;4965344;28;19949;-76
2022/10/20 01:54:37;;;;;;;;;;;3.60;99.90;;;;;;4964001;28;19939;-75
2022/10/20 01:57:18;;;;;;;;;;;3.70;99.90;;;;;;4963552;28;19914;-75
2022/10/20 01:59:53;;;;;;;;;;;3.70;99.90;;;;;;4969557;28;19916;-75
2022/10/20 02:02:37;;;;;;;;;;;3.70;99.90;;;;;;4969310;28;19922;-75
2022/10/20 02:05:15;;;;;;;;;;;3.70;99.90;;;;;;4969671;28;19910;-75
2022/10/20 02:07:41;;;;;;;;;;;3.70;99.90;;;;;;4968054;28;19918;-75
2022/10/20 02:10:21;;;;;;;;;;;3.50;99.90;;;;;;4962732;28;19921;-75
2022/10/20 02:12:49;;;;;;;;;;;3.60;99.90;;;;;;4963522;28;19914;-75
2022/10/20 02:15:17;;;;;;;;;;;3.60;99.90;;;;;;4963889;28;19964;-76
2022/10/20 02:17:44;;;;;;;;;;;3.60;99.90;;;;;;4967898;28;20435;-76
2022/10/20 02:20:10;;;;;;;;;;;3.70;99.90;;;;;;4968651;28;19922;-75
2022/10/20 02:22:36;;;;;;;;;;;3.70;99.90;;;;;;4968667;28;20296;-75
2022/10/20 02:25:02;;;;;;;;;;;3.70;99.90;;;;;;4967768;28;19991;-76
2022/10/20 02:27:35;;;;;;;;;;;3.50;99.90;;;;;;4961951;28;19929;-75
2022/10/20 02:30:05;;;;;;;;;;;3.50;99.90;;;;;;4966862;28;19918;-75
2022/10/20 02:32:31;;;;;;;;;;;3.50;99.90;;;;;;4965707;28;20008;-76
2022/10/20 02:34:57;;;;;;;;;;;3.50;99.90;;;;;;4967678;28;19916;-76
2022/10/20 02:37:22;;;;;;;;;;;3.50;99.90;;;;;;4962382;28;20308;-76
2022/10/20 02:39:48;;;;;;;;;;;3.40;99.90;;;;;;4967099;28;19917;-75
2022/10/20 02:42:15;;;;;;;;;;;3.30;99.90;;;;;;4968973;28;20588;-75
2022/10/20 02:44:41;;;;;;;;;;;3.20;99.90;;;;;;4966093;28;19991;-75
2022/10/20 02:47:06;;;;;;;;;;;3.10;99.90;;;;;;4968442;28;19989;-75
2022/10/20 02:49:32;;;;;;;;;;;3.30;99.90;;;;;;4964822;28;20099;-76
2022/10/20 02:51:57;;;;;;;;;;;3.20;99.90;;;;;;4962678;28;19928;-76
2022/10/20 02:54:23;;;;;;;;;;;3.20;99.90;;;;;;4966608;28;19921;-75
2022/10/20 02:56:48;;;;;;;;;;;3.20;99.90;;;;;;4966305;28;19942;-75
2022/10/20 02:59:16;;;;;;;;;;;3.30;99.90;;;;;;4968788;28;20017;-75
2022/10/20 03:01:42;;;;;;;;;;;3.20;99.90;;;;;;4966502;28;19906;-75
2022/10/20 03:04:07;;;;;;;;;;;3.30;99.90;;;;;;4957834;28;19917;-76
2022/10/20 03:06:33;;;;;;;;;;;3.30;99.90;;;;;;4965468;28;19910;-75
2022/10/20 03:08:58;;;;;;;;;;;3.30;99.90;;;;;;4964266;28;19914;-75
2022/10/20 03:11:24;;;;;;;;;;;3.20;99.90;;;;;;4958769;28;19910;-75
2022/10/20 03:13:49;;;;;;;;;;;3.20;99.90;;;;;;4966755;28;19914;-75
2022/10/20 03:16:15;;;;;;;;;;;3.20;99.90;;;;;;4966089;28;19910;-75
2022/10/20 03:18:40;;;;;;;;;;;3.20;99.90;;;;;;4968302;28;19988;-75
2022/10/20 03:21:05;;;;;;;;;;;3.20;99.90;;;;;;4969408;28;19941;-76
2022/10/20 03:23:31;;;;;;;;;;;3.30;99.90;;;;;;4969023;28;20006;-75
2022/10/20 03:26:00;;;;;;;;;;;3.30;99.90;;;;;;4968667;28;19910;-75
2022/10/20 03:28:25;;;;;;;;;;;3.30;99.90;;;;;;4966924;28;19914;-75
2022/10/20 03:30:51;;;;;;;;;;;3.30;99.90;;;;;;4967858;28;19925;-75
2022/10/20 03:33:16;;;;;;;;;;;3.30;99.90;;;;;;4963329;28;19910;-76
2022/10/20 03:35:41;;;;;;;;;;;3.20;99.90;;;;;;4965915;28;20420;-76
2022/10/20 03:38:07;;;;;;;;;;;3.30;99.90;;;;;;4962709;28;19920;-75
2022/10/20 03:40:32;;;;;;;;;;;3.20;99.90;;;;;;4959016;28;19914;-75
2022/10/20 03:42:58;;;;;;;;;;;3.30;99.90;;;;;;4967008;28;19914;-75
2022/10/20 03:45:23;;;;;;;;;;;3.30;99.90;;;;;;4969686;28;19910;-75
2022/10/20 03:47:48;;;;;;;;;;;3.20;99.90;;;;;;4962222;28;19968;-76
2022/10/20 03:50:14;;;;;;;;;;;3.20;99.90;;;;;;4965900;28;20548;-75
2022/10/20 03:52:39;;;;;;;;;;;3.20;99.90;;;;;;4966897;28;20359;-75
2022/10/20 03:55:05;;;;;;;;;;;3.20;99.90;;;;;;4964565;28;20532;-76
2022/10/20 03:57:30;;;;;;;;;;;3.10;99.90;;;;;;4968269;28;20000;-75
2022/10/20 03:59:56;;;;;;;;;;;3.10;99.90;;;;;;4956412;28;19914;-76
2022/10/20 04:02:27;;;;;;;;;;;3.10;99.90;;;;;;4963207;28;19910;-75
2022/10/20 04:04:52;;;;;;;;;;;3.10;99.90;;;;;;4956108;28;19910;-76
2022/10/20 04:07:18;;;;;;;;;;;3.00;99.90;;;;;;4963471;28;20339;-76
2022/10/20 04:09:43;;;;;;;;;;;2.90;99.90;;;;;;4956226;28;19942;-75
2022/10/20 04:12:08;;;;;;;;;;;3.00;99.90;;;;;;4965022;28;19914;-75
2022/10/20 04:14:34;;;;;;;;;;;3.00;99.90;;;;;;4968580;28;19918;-76
2022/10/20 04:16:59;;;;;;;;;;;2.90;99.90;;;;;;4961164;28;19910;-76
2022/10/20 04:19:25;;;;;;;;;;;3.00;99.90;;;;;;4963583;28;19910;-76
2022/10/20 04:21:50;;;;;;;;;;;2.80;99.90;;;;;;4960529;28;19914;-76
2022/10/20 04:24:15;;;;;;;;;;;2.80;99.90;;;;;;4964359;28;20293;-76
2022/10/20 04:26:41;;;;;;;;;;;2.80;99.90;;;;;;4965937;28;19917;-76
2022/10/20 04:29:06;;;;;;;;;;;2.80;99.90;;;;;;4963787;28;19980;-76
2022/10/20 04:31:32;;;;;;;;;;;2.80;99.90;;;;;;4955666;28;20067;-74
2022/10/20 04:33:57;;;;;;;;;;;2.80;99.90;;;;;;4966704;28;19910;-75
2022/10/20 04:36:22;;;;;;;;;;;3.00;99.90;;;;;;4961577;28;19937;-75
2022/10/20 04:38:48;;;;;;;;;;;2.90;99.90;;;;;;4964728;28;19914;-76
2022/10/20 04:41:13;;;;;;;;;;;2.90;99.90;;;;;;4962363;28;19949;-75
2022/10/20 04:43:39;;;;;;;;;;;2.90;99.90;;;;;;4961070;28;20247;-75
2022/10/20 04:46:05;;;;;;;;;;;2.90;99.90;;;;;;4961243;28;19910;-75
2022/10/20 04:48:30;;;;;;;;;;;3.00;99.90;;;;;;4959756;28;19914;-75
2022/10/20 04:51:03;;;;;;;;;;;3.00;99.90;;;;;;4965486;28;19960;-75
2022/10/20 04:53:28;;;;;;;;;;;3.00;99.90;;;;;;4961932;28;19910;-75
2022/10/20 04:55:54;;;;;;;;;;;3.00;99.90;;;;;;4956957;28;19910;-75
2022/10/20 04:58:20;;;;;;;;;;;3.00;99.90;;;;;;4961359;28;19957;-76
2022/10/20 05:00:46;;;;;;;;;;;3.00;99.90;;;;;;4961813;28;20321;-76
2022/10/20 05:03:11;;;;;;;;;;;3.10;99.90;;;;;;4955528;28;19910;-78
2022/10/20 05:05:39;;;;;;;;;;;3.10;99.90;;;;;;4963153;28;19998;-77
2022/10/20 05:08:05;;;;;;;;;;;3.20;99.90;;;;;;4960681;28;20002;-76
2022/10/20 05:10:30;;;;;;;;;;;3.20;99.90;;;;;;4966822;28;20017;-76
2022/10/20 05:12:56;;;;;;;;;;;3.20;99.90;;;;;;4960781;28;19940;-76
2022/10/20 05:15:21;;;;;;;;;;;3.10;99.90;;;;;;4954679;28;20021;-76
2022/10/20 05:17:47;;;;;;;;;;;3.20;99.90;;;;;;4959673;28;20505;-76
2022/10/20 05:20:12;;;;;;;;;;;3.20;99.90;;;;;;4959122;28;19910;-75
2022/10/20 05:22:37;;;;;;;;;;;3.10;99.90;;;;;;4964345;28;19918;-75
2022/10/20 05:25:03;;;;;;;;;;;3.20;99.90;;;;;;4967254;28;19910;-75
2022/10/20 05:27:29;;;;;;;;;;;3.20;99.90;;;;;;4954276;28;19914;-76
2022/10/20 05:29:54;;;;;;;;;;;3.20;99.90;;;;;;4962725;28;19914;-75
2022/10/20 05:32:19;;;;;;;;;;;3.20;99.90;;;;;;4962300;28;19918;-75
2022/10/20 05:34:45;;;;;;;;;;;3.00;99.90;;;;;;4971468;28;20057;-75
2022/10/20 05:37:10;;;;;;;;;;;3.00;99.90;;;;;;4971953;28;19906;-75
2022/10/20 05:39:36;;;;;;;;;;;3.00;99.90;;;;;;4959951;28;20401;-75
2022/10/20 05:42:01;;;;;;;;;;;3.10;99.90;;;;;;4953742;28;20360;-75
2022/10/20 05:44:27;;;;;;;;;;;3.10;99.90;;;;;;4953663;28;19907;-75
2022/10/20 05:46:52;;;;;;;;;;;3.10;99.90;;;;;;4953447;28;20495;-75
2022/10/20 05:49:18;;;;;;;;;;;3.10;99.90;;;;;;4970210;28;19906;-75
2022/10/20 05:51:44;;;;;;;;;;;3.10;99.90;;;;;;4965381;28;19922;-75
2022/10/20 05:54:10;;;;;;;;;;;3.10;99.90;;;;;;4968730;28;19910;-77
2022/10/20 05:56:36;;;;;;;;;;;3.10;99.90;;;;;;4964450;28;19962;-77
2022/10/20 05:59:01;;;;;;;;;;;3.10;99.90;;;;;;4953337;28;19910;-76
2022/10/20 06:01:37;;;;;;;;;;;3.00;99.90;;;;;;4969699;28;19906;-76
2022/10/20 06:04:03;;;;;;;;;;;3.00;99.90;;;;;;4966500;28;19910;-76
2022/10/20 06:06:54;;;;;;;;;;;3.10;99.90;;;;;;4958767;28;19906;-76
2022/10/20 06:09:21;;;;;;;;;;;3.10;99.90;;;;;;4953252;28;19918;-76
2022/10/20 06:11:47;;;;;;;;;;;3.20;99.90;;;;;;4958132;28;20278;-77
2022/10/20 06:14:13;;;;;;;;;;;3.20;99.90;;;;;;4965556;28;19914;-76
2022/10/20 06:16:38;;;;;;;;;;;3.20;99.90;;;;;;4952685;28;19954;-77
2022/10/20 06:19:05;;;;;;;;;;;3.30;99.90;;;;;;4967681;28;19959;-76
2022/10/20 06:21:31;;;;;;;;;;;3.40;99.90;;;;;;4961217;28;19917;-76
2022/10/20 06:23:58;;;;;;;;;;;3.40;99.90;;;;;;4963732;28;19911;-77
2022/10/20 06:26:24;;;;;;;;;;;3.40;99.90;;;;;;4971717;28;19944;-76
2022/10/20 06:28:51;;;;;;;;;;;3.40;99.90;;;;;;4963793;28;19918;-77
2022/10/20 06:31:18;;;;;;;;;;;3.40;99.90;;;;;;4960696;28;19929;-76
2022/10/20 06:33:44;;;;;;;;;;;3.50;99.90;;;;;;4958840;28;20361;-76
2022/10/20 06:36:10;;;;;;;;;;;3.60;99.90;;;;;;4968801;28;19917;-77
2022/10/20 06:38:35;;;;;;;;;;;3.70;99.90;;;;;;4961338;28;19918;-76
2022/10/20 06:41:01;;;;;;;;;;;3.70;99.90;;;;;;4959008;28;19917;-77
2022/10/20 06:43:26;;;;;;;;;;;3.80;99.90;;;;;;4954776;28;20370;-77
2022/10/20 06:45:53;;;;;;;;;;;3.80;99.90;;;;;;4955678;28;19937;-76
2022/10/20 06:48:18;;;;;;;;;;;3.90;99.90;;;;;;4954025;28;19915;-77
2022/10/20 06:50:43;;;;;;;;;;;4.00;99.90;;;;;;4964153;28;19918;-76
2022/10/20 06:53:11;;;;;;;;;;;4.10;99.90;;;;;;4961263;28;19953;-75
2022/10/20 06:55:36;;;;;;;;;;;4.20;99.90;;;;;;4960037;28;19910;-74
2022/10/20 06:58:01;;;;;;;;;;;4.30;99.90;;;;;;4954727;28;19981;-73
2022/10/20 07:00:27;;;;;;;;;;;4.40;99.90;;;;;;4962574;28;19917;-76
2022/10/20 07:02:52;;;;;;;;;;;4.40;99.90;;;;;;4963658;28;20378;-75
2022/10/20 07:05:18;;;;;;;;;;;4.50;99.90;;;;;;4968814;28;19910;-76
2022/10/20 07:07:44;;;;;;;;;;;4.60;99.90;;;;;;4968897;28;20263;-75
2022/10/20 07:10:09;;;;;;;;;;;4.80;99.90;;;;;;4968461;28;19993;-74
2022/10/20 07:12:35;;;;;;;;;;;5.00;99.90;;;;;;4958431;28;19913;-75
2022/10/20 07:15:00;;;;;;;;;;;5.00;99.90;;;;;;4969369;28;19948;-74
2022/10/20 07:17:25;;;;;;;;;;;5.10;99.90;;;;;;4965095;28;19914;-74
2022/10/20 07:19:51;;;;;;;;;;;5.20;99.90;;;;;;4966940;28;20017;-74
2022/10/20 07:22:16;;;;;;;;;;;5.30;99.90;;;;;;4963820;28;20334;-73
2022/10/20 07:24:42;;;;;;;;;;;5.40;99.90;;;;;;4962561;28;20431;-74
2022/10/20 07:27:07;;;;;;;;;;;5.50;99.90;;;;;;4965320;28;20404;-74
2022/10/20 07:29:32;;;;;;;;;;;5.50;99.90;;;;;;4967622;28;20092;-74
2022/10/20 07:31:58;;;;;;;;;;;5.60;99.90;;;;;;4963176;28;19918;-73
2022/10/20 07:34:23;;;;;;;;;;;5.70;99.90;;;;;;4964500;28;19910;-73
2022/10/20 07:36:49;;;;;;;;;;;5.80;99.90;;;;;;4968900;28;20159;-74
2022/10/20 07:39:14;;;;;;;;;;;5.90;99.90;;;;;;4962754;28;19910;-74
2022/10/20 07:41:42;;;;;;;;;;;6.00;99.90;;;;;;4966121;28;19910;-74
2022/10/20 07:44:08;;;;;;;;;;;6.10;99.90;;;;;;4965952;28;19910;-76
2022/10/20 07:46:33;;;;;;;;;;;6.30;99.90;;;;;;4960067;28;20056;-76
2022/10/20 07:48:59;;;;;;;;;;;6.40;99.90;;;;;;4955772;28;19922;-76
2022/10/20 07:51:31;;;;;;;;;;;6.50;99.90;;;;;;4951789;28;19914;-77
2022/10/20 07:53:57;;;;;;;;;;;6.60;99.90;;;;;;4962470;28;19914;-76
2022/10/20 07:56:23;;;;;;;;;;;6.70;99.90;;;;;;4969483;28;19986;-76
2022/10/20 07:58:49;;;;;;;;;;;6.90;99.90;;;;;;4970517;28;20329;-76
2022/10/20 08:01:15;;;;;;;;;;;7.10;99.90;;;;;;4969233;28;19945;-76
2022/10/20 08:03:40;;;;;;;;;;;7.20;99.90;;;;;;4966337;28;19965;-76
2022/10/20 08:06:06;;;;;;;;;;;7.30;99.90;;;;;;4963774;28;19918;-75
2022/10/20 08:08:32;;;;;;;;;;;7.50;99.90;;;;;;4968134;28;19910;-75
2022/10/20 08:10:57;;;;;;;;;;;7.70;99.90;;;;;;4960092;28;19914;-76
2022/10/20 08:13:26;;;;;;;;;;;7.80;99.90;;;;;;4960109;28;20353;-76
2022/10/20 08:15:52;;;;;;;;;;;8.00;99.90;;;;;;4956484;28;20294;-75
2022/10/20 08:18:17;;;;;;;;;;;8.20;99.90;;;;;;4947189;28;19929;-74
2022/10/20 08:20:44;;;;;;;;;;;8.30;99.90;;;;;;4954446;28;19910;-75
2022/10/20 08:23:09;;;;;;;;;;;8.50;99.90;;;;;;4960765;28;20723;-76
2022/10/20 08:25:34;;;;;;;;;;;8.70;99.90;;;;;;4951509;28;19910;-75
2022/10/20 08:28:00;;;;;;;;;;;8.90;99.90;;;;;;4950592;28;19957;-75
2022/10/20 08:30:25;;;;;;;;;;;9.10;99.90;;;;;;4967081;28;19932;-75
2022/10/20 08:32:51;;;;;;;;;;;9.20;99.90;;;;;;4982066;28;20008;-75
2022/10/20 08:35:17;;;;;;;;;;;9.40;99.90;;;;;;4957601;28;19914;-75
2022/10/20 08:37:42;;;;;;;;;;;9.50;99.90;;;;;;4956348;28;19910;-75
2022/10/20 08:40:09;;;;;;;;;;;9.60;99.90;;;;;;4961257;28;19911;-75
2022/10/20 08:42:37;;;;;;;;;;;9.60;99.90;;;;;;4958744;28;20538;-76
2022/10/20 08:45:04;;;;;;;;;;;9.60;99.90;;;;;;4958233;28;19910;-75
2022/10/20 08:47:31;;;;;;;;;;;9.80;99.90;;;;;;4956019;28;19944;-75
2022/10/20 08:49:57;;;;;;;;;;;9.80;99.90;;;;;;4954197;28;19918;-75
2022/10/20 08:52:23;;;;;;;;;;;9.90;99.90;;;;;;4957201;28;19918;-75
2022/10/20 08:54:51;;;;;;;;;;;10.10;99.90;;;;;;4958043;28;19936;-75
2022/10/20 08:57:19;;;;;;;;;;;10.20;99.90;;;;;;4964572;28;20353;-74
2022/10/20 08:59:44;;;;;;;;;;;10.30;99.90;;;;;;4965637;28;19910;-75
2022/10/20 09:02:14;;;;;;;;;;;10.50;99.90;;;;;;4950852;28;19910;-75
2022/10/20 09:04:42;;;;;;;;;;;10.60;99.90;;;;;;4958638;28;19926;-75
2022/10/20 09:07:19;;;;;;;;;;;10.70;99.90;;;;;;4952063;28;19972;-75
2022/10/20 09:09:44;;;;;;;;;;;10.90;99.90;;;;;;4966464;28;19964;-75
2022/10/20 09:12:12;;;;;;;;;;;11.00;99.90;;;;;;4966771;28;19910;-76
2022/10/20 09:14:37;;;;;;;;;;;11.20;99.90;;;;;;4964318;28;19914;-76
2022/10/20 09:17:03;;;;;;;;;;;11.30;99.90;;;;;;4964692;28;19973;-75
2022/10/20 09:19:29;;;;;;;;;;;11.40;99.90;;;;;;4966050;28;19910;-75
2022/10/20 09:21:56;;;;;;;;;;;11.50;99.90;;;;;;4959167;28;19918;-76
2022/10/20 09:24:23;;;;;;;;;;;11.60;99.90;;;;;;4962497;28;19910;-76
2022/10/20 09:26:49;;;;;;;;;;;11.70;99.90;;;;;;4960113;28;19906;-76
2022/10/20 09:29:16;;;;;;;;;;;11.90;99.90;;;;;;4967879;28;19964;-75
2022/10/20 09:31:45;;;;;;;;;;;12.00;99.90;;;;;;4960649;28;20496;-76
2022/10/20 09:34:27;;;;;;;;;;;12.20;99.90;;;;;;4968637;28;20013;-76
2022/10/20 09:36:56;;;;;;;;;;;12.20;99.90;;;;;;4962251;28;19914;-76
2022/10/20 09:39:23;;;;;;;;;;;12.50;99.90;;;;;;4960946;28;19910;-76
2022/10/20 09:41:49;;;;;;;;;;;12.60;99.90;;;;;;4958039;28;19912;-76
2022/10/20 09:44:24;;;;;;;;;;;12.70;99.90;;;;;;4970123;28;19921;-76
2022/10/20 09:46:52;;;;;;;;;;;12.50;99.90;;;;;;4964498;28;20269;-76
2022/10/20 09:49:32;;;;;;;;;;;12.60;99.90;;;;;;4959607;28;19946;-76
2022/10/20 09:51:58;;;;;;;;;;;12.70;99.90;;;;;;4964663;28;19921;-76
2022/10/20 09:54:24;;;;;;;;;;;12.70;99.90;;;;;;4966382;28;20292;-76
2022/10/20 09:56:51;;;;;;;;;;;12.60;99.90;;;;;;4959400;28;19937;-76
2022/10/20 09:59:19;;;;;;;;;;;12.70;99.90;;;;;;4964421;28;19917;-76
2022/10/20 10:01:52;;;;;;;;;;;12.80;99.90;;;;;;4965789;28;20379;-76
2022/10/20 10:04:37;;;;;;;;;;;12.90;99.90;;;;;;4964823;28;20380;-76
2022/10/20 10:07:04;;;;;;;;;;;13.10;99.30;;;;;;4965547;28;19916;-76
2022/10/20 10:09:31;;;;;;;;;;;13.20;99.80;;;;;;4964755;28;19961;-76
2022/10/20 10:11:57;;;;;;;;;;;13.20;99.80;;;;;;4961009;28;20399;-76
2022/10/20 10:14:22;;;;;;;;;;;13.30;99.60;;;;;;4957583;28;19916;-76
2022/10/20 10:16:48;;;;;;;;;;;13.40;98.10;;;;;;4956576;28;19981;-76
2022/10/20 10:19:16;;;;;;;;;;;13.40;97.40;;;;;;4963465;28;19941;-76
2022/10/20 10:21:46;;;;;;;;;;;13.70;96.80;;;;;;4959465;28;19920;-76
2022/10/20 10:24:35;;;;;;;;;;;13.70;96.00;;;;;;4958301;28;19909;-76
2022/10/20 10:27:01;;;;;;;;;;;13.90;95.90;;;;;;4964495;28;19918;-76
2022/10/20 10:29:28;;;;;;;;;;;14.10;96.30;;;;;;4958430;28;19913;-76
2022/10/20 10:31:57;;;;;;;;;;;14.10;96.00;;;;;;4958781;28;19914;-76
2022/10/20 10:34:23;;;;;;;;;;;14.40;94.10;;;;;;4968590;28;20538;-76
2022/10/20 10:36:48;;;;;;;;;;;14.50;93.50;;;;;;4962029;28;19910;-75
2022/10/20 10:39:14;;;;;;;;;;;14.60;94.00;;;;;;4957668;28;19913;-76
2022/10/20 10:41:42;;;;;;;;;;;14.80;92.00;;;;;;4963182;28;19964;-76
2022/10/20 10:44:07;;;;;;;;;;;15.70;91.60;;;;;;4959980;28;20594;-76
2022/10/20 10:46:41;;;;;;;;;;;17.40;85.70;;;;;;4958876;28;19915;-76
2022/10/20 10:49:17;;;;;;;;;;;18.30;78.30;;;;;;4968580;28;19921;-76
2022/10/20 10:52:01;;;;;;;;;;;19.40;72.50;;;;;;4965774;28;19983;-76
2022/10/20 10:54:36;;;;;;;;;;;20.90;63.50;;;;;;4968355;28;20537;-76
2022/10/20 10:57:04;;;;;;;;;;;20.50;61.70;;;;;;4961103;28;19921;-76
2022/10/20 10:59:29;;;;;;;;;;;21.70;59.30;;;;;;4966081;28;20403;-76
2022/10/20 11:02:13;;;;;;;;;;;22.70;55.50;;;;;;4962192;28;19994;-76
2022/10/20 11:04:49;;;;;;;;;;;23.00;54.40;;;;;;4958704;28;19933;-77
2022/10/20 11:07:14;;;;;;;;;;;23.90;52.60;;;;;;4965781;28;19961;-75
2022/10/20 11:09:58;;;;;;;;;;;22.20;52.70;;;;;;4957543;28;19941;-76
2022/10/20 11:12:44;;;;;;;;;;;22.00;54.80;;;;;;4959813;28;19910;-76
2022/10/20 11:15:27;;;;;;;;;;;23.40;52.20;;;;;;4962094;28;19914;-76
2022/10/20 11:18:04;;;;;;;;;;;24.60;48.70;;;;;;4962635;28;20572;-76
2022/10/20 11:20:36;;;;;;;;;;;25.40;46.00;;;;;;4961623;28;19910;-76
2022/10/20 11:23:20;;;;;;;;;;;26.40;45.10;;;;;;4961971;28;21977;-76
2022/10/20 11:25:51;;;;;;;;;;;27.00;43.70;;;;;;4963361;28;19964;-76
2022/10/20 11:28:33;;;;;;;;;;;28.30;41.80;;;;;;4955291;28;20372;-76
2022/10/20 11:30:59;;;;;;;;;;;29.40;39.50;;;;;;4965790;28;19949;-75
2022/10/20 11:33:41;;;;;;;;;;;28.20;39.80;;;;;;4966071;28;19914;-76
2022/10/20 11:36:13;;;;;;;;;;;29.00;39.10;;;;;;4956105;28;19918;-76
2022/10/20 11:38:41;;;;;;;;;;;28.80;39.70;;;;;;4960574;28;20366;-76
2022/10/20 11:41:21;;;;;;;;;;;30.30;37.30;;;;;;4959829;28;19910;-76
2022/10/20 11:44:06;;;;;;;;;;;31.70;36.80;;;;;;4961338;28;20008;-76
2022/10/20 11:46:49;;;;;;;;;;;32.00;35.80;;;;;;4919988;28;19910;-77
2022/10/20 11:49:15;;;;;;;;;;;32.50;33.90;;;;;;4964261;28;19957;-77
2022/10/20 11:51:40;;;;;;;;;;;29.90;37.00;;;;;;4960361;28;19964;-77
2022/10/20 11:54:13;;;;;;;;;;;30.50;36.80;;;;;;4959997;28;19933;-77
2022/10/20 11:56:52;;;;;;;;;;;31.10;35.50;;;;;;4963761;28;19910;-77
2022/10/20 11:59:27;;;;;;;;;;;31.30;35.10;;;;;;4964934;28;19965;-75
2022/10/20 12:02:02;;;;;;;;;;;30.40;34.70;;;;;;4957417;28;19916;-75
2022/10/20 12:04:42;;;;;;;;;;;30.00;35.50;;;;;;4955646;28;19922;-76
2022/10/20 12:07:10;;;;;;;;;;;30.20;35.90;;;;;;4967996;28;20380;-76
2022/10/20 12:09:38;;;;;;;;;;;30.70;35.00;;;;;;4964516;28;20004;-76
2022/10/20 12:12:05;;;;;;;;;;;30.00;35.20;;;;;;4955067;28;19918;-75
2022/10/20 12:14:30;;;;;;;;;;;28.20;36.70;;;;;;4968377;28;19910;-76
2022/10/20 12:17:04;;;;;;;;;;;26.80;39.40;;;;;;4966866;28;20483;-76
2022/10/20 12:19:30;;;;;;;;;;;26.50;39.50;;;;;;4957332;28;19910;-76
2022/10/20 12:21:58;;;;;;;;;;;27.80;38.60;;;;;;4958421;28;19918;-76
2022/10/20 12:24:31;;;;;;;;;;;28.20;37.40;;;;;;4959795;28;19909;-77
2022/10/20 12:27:05;;;;;;;;;;;26.60;40.20;;;;;;4961388;28;19968;-76
2022/10/20 12:29:31;;;;;;;;;;;27.60;40.60;;;;;;4955463;28;20523;-75
2022/10/20 12:32:20;;;;;;;;;;;28.20;38.50;;;;;;4964906;28;19965;-76
2022/10/20 12:34:46;;;;;;;;;;;28.50;37.60;;;;;;4939019;28;19910;-76
2022/10/20 12:37:19;;;;;;;;;;;25.90;41.30;;;;;;4954255;28;19910;-76
2022/10/20 12:39:45;;;;;;;;;;;24.90;43.50;;;;;;4954376;28;19921;-76
2022/10/20 12:42:27;;;;;;;;;;;24.40;45.20;;;;;;4957647;28;20024;-76
2022/10/20 12:44:53;;;;;;;;;;;26.40;41.90;;;;;;4967117;28;19988;-76
2022/10/20 12:47:18;;;;;;;;;;;28.60;37.90;;;;;;4967641;28;19957;-76
2022/10/20 12:49:53;;;;;;;;;;;30.00;36.00;;;;;;4961404;28;19922;-76
2022/10/20 12:52:20;;;;;;;;;;;31.70;34.70;;;;;;4957467;28;20267;-76
2022/10/20 12:54:51;;;;;;;;;;;32.70;32.90;;;;;;4960526;28;19924;-76
2022/10/20 12:57:25;;;;;;;;;;;33.30;33.20;;;;;;4959145;28;20000;-76
2022/10/20 12:59:50;;;;;;;;;;;31.80;33.00;;;;;;4963072;28;19910;-76
2022/10/20 13:02:16;;;;;;;;;;;31.00;34.80;;;;;;4957486;28;19929;-76
2022/10/20 13:04:51;;;;;;;;;;;31.10;33.80;;;;;;4966010;28;19910;-76
2022/10/20 13:07:35;;;;;;;;;;;31.80;33.20;;;;;;4962827;28;19945;-76
2022/10/20 13:10:01;;;;;;;;;;;32.10;33.10;;;;;;4961737;28;20013;-75
2022/10/20 13:12:28;;;;;;;;;;;33.10;32.70;;;;;;4966216;28;20017;-75
2022/10/20 13:14:55;;;;;;;;;;;33.40;31.80;;;;;;4959085;28;19917;-75
2022/10/20 13:17:22;;;;;;;;;;;31.80;32.30;;;;;;4958164;28;20326;-75
2022/10/20 13:19:54;;;;;;;;;;;31.00;33.80;;;;;;4960817;28;19925;-75
2022/10/20 13:22:31;;;;;;;;;;;31.10;33.60;;;;;;4958642;28;19918;-75
2022/10/20 13:25:01;;;;;;;;;;;30.40;34.20;;;;;;4958651;28;19922;-75
2022/10/20 13:27:27;;;;;;;;;;;30.40;33.80;;;;;;4965423;28;20411;-76
2022/10/20 13:29:53;;;;;;;;;;;31.00;34.20;;;;;;4963316;28;19964;-72
2022/10/20 13:32:18;;;;;;;;;;;27.50;37.00;;;;;;4955179;28;19942;-75
2022/10/20 13:34:46;;;;;;;;;;;25.40;41.50;;;;;;4957440;28;20306;-75
2022/10/20 13:37:26;;;;;;;;;;;25.10;42.40;;;;;;4958977;28;20719;-80
2022/10/20 13:40:10;;;;;;;;;;;27.90;39.10;;;;;;4963008;28;19949;-76
2022/10/20 13:42:40;;;;;;;;;;;29.00;36.50;;;;;;4959137;28;19921;-75
2022/10/20 13:45:06;;;;;;;;;;;25.20;40.70;;;;;;4962424;28;19917;-76
2022/10/20 13:47:46;;;;;;;;;;;21.80;47.20;;;;;;4958774;28;20562;-76
2022/10/20 13:50:13;;;;;;;;;;;20.00;50.90;;;;;;4965664;28;19969;-82
2022/10/20 13:52:43;;;;;;;;;;;19.20;53.00;;;;;;4959883;28;19918;-77
2022/10/20 13:55:15;;;;;;;;;;;18.80;54.10;;;;;;4957394;28;20369;-77
2022/10/20 13:57:46;;;;;;;;;;;18.50;55.60;;;;;;4962476;28;19910;-76
2022/10/20 14:00:18;;;;;;;;;;;18.10;56.00;;;;;;4960951;28;19957;-77
2022/10/20 14:02:51;;;;;;;;;;;17.80;56.70;;;;;;4965334;28;19982;-77
2022/10/20 14:05:18;;;;;;;;;;;17.60;57.30;;;;;;4970959;28;19918;-78
2022/10/20 14:07:44;;;;;;;;;;;17.80;57.90;;;;;;4965582;28;19914;-76
2022/10/20 14:10:19;;;;;;;;;;;18.50;57.60;;;;;;4966635;28;19944;-76
2022/10/20 14:12:45;;;;;;;;;;;21.30;53.10;;;;;;4961523;28;19953;-76
2022/10/20 14:15:11;;;;;;;;;;;21.60;49.70;;;;;;4966418;28;20404;-77
2022/10/20 14:17:37;;;;;;;;;;;23.00;47.70;;;;;;4964422;28;19969;-76
2022/10/20 14:20:19;;;;;;;;;;;22.50;47.50;;;;;;4962593;28;19956;-76
2022/10/20 14:22:45;;;;;;;;;;;21.20;49.70;;;;;;4968870;28;19997;-76
2022/10/20 14:25:11;;;;;;;;;;;21.00;51.00;;;;;;4969167;28;20005;-77
2022/10/20 14:27:36;;;;;;;;;;;20.70;51.30;;;;;;4957248;28;19918;-77
2022/10/20 14:30:03;;;;;;;;;;;21.10;50.80;;;;;;4952789;28;19949;-77
2022/10/20 14:32:30;;;;;;;;;;;21.30;50.10;;;;;;4963008;28;19957;-77